Terminal Aerodrome Forecast
Issued by NWS

Home | Current Version | Previous Version | Text Only | Print | Product List | Glossary On
Versions: 1 2 3 4 5 6 7 8 9 10 11 12 13 14
238
FTUS45 KABQ 221734
TAFAEG
TAF
KAEG 221734Z 2218/2318 29015G23KT P6SM FEW120
     FM222100 30021G30KT P6SM FEW120
     FM230200 31013KT P6SM FEW120
     FM231400 35010KT P6SM SKC=

USA.gov is the U.S. government's official web portal to all federal, state and local government web resources and services.